Terminal Aerodrome Forecast
Issued by NWS Bismarck, ND

Home | Current Version | Previous Version | Graphics & Text | Print | Product List | Glossary On
Versions: 1 2 3 4 5 6 7 8 9 10 11 12 13 14 15 16 17 18
000
FTUS43 KBIS 250550
TAFBIS
TAF
KBIS 250550Z 2506/2606 14006KT P6SM SKC
     FM251200 22009KT P6SM SCT120 SCT180
     FM251900 20008KT P6SM VCTS BKN090CB
     FM260200 13006KT P6SM BKN100=

USA.gov is the U.S. government's official web portal to all federal, state and local government web resources and services.